createdAt,value
2019-05-30T00:01:05.979Z,12.25
2019-05-30T00:03:56.037Z,12.30
2019-05-30T00:09:45.232Z,12.19
2019-05-30T00:12:35.032Z,12.18
2019-05-30T00:15:24.971Z,12.17
2019-05-30T00:18:14.790Z,12.05
2019-05-30T00:20:45.238Z,11.93
2019-05-30T00:23:34.985Z,11.85
2019-05-30T00:26:24.787Z,11.83
2019-05-30T00:29:14.600Z,11.72
2019-05-30T00:32:05.029Z,11.68
2019-05-30T00:34:55.901Z,11.68
2019-05-30T00:37:45.680Z,11.57
2019-05-30T00:40:35.501Z,11.51
2019-05-30T00:43:25.267Z,11.43
2019-05-30T00:46:15.107Z,11.32
2019-05-30T00:49:06.510Z,11.34
2019-05-30T00:51:56.718Z,11.27
2019-05-30T00:54:27.166Z,11.23
2019-05-30T00:57:16.933Z,11.16
2019-05-30T01:00:07.425Z,11.16
2019-05-30T01:02:59.889Z,11.13
2019-05-30T01:05:40.681Z,11.07
2019-05-30T01:08:30.487Z,11.15
2019-05-30T01:11:20.344Z,11.18
2019-05-30T01:14:10.134Z,11.17
2019-05-30T01:17:01.047Z,11.16
2019-05-30T01:19:43.286Z,11.08
2019-05-30T01:22:33.121Z,11.09
2019-05-30T01:25:22.895Z,11.12
2019-05-30T01:28:12.692Z,11.16
2019-05-30T01:31:05.544Z,11.22
2019-05-30T01:33:40.100Z,11.21
2019-05-30T01:36:29.878Z,11.26
2019-05-30T01:39:19.670Z,11.28
2019-05-30T01:42:09.468Z,11.25
2019-05-30T01:45:00.197Z,11.33
2019-05-30T01:47:42.729Z,11.25
2019-05-30T01:50:32.549Z,11.26
2019-05-30T01:53:22.325Z,11.26
2019-05-30T01:56:12.095Z,11.30
2019-05-30T01:59:02.672Z,11.32
2019-05-30T02:01:39.394Z,11.32
2019-05-30T02:04:29.175Z,11.43
2019-05-30T02:07:18.973Z,11.38
2019-05-30T02:13:12.544Z,11.45
2019-05-30T02:16:03.644Z,11.52
2019-05-30T02:18:45.284Z,11.49
2019-05-30T02:21:35.071Z,11.61
2019-05-30T02:24:24.834Z,11.61
2019-05-30T02:27:14.622Z,11.62
2019-05-30T02:30:06.633Z,11.71
2019-05-30T02:32:47.691Z,11.72
2019-05-30T02:35:37.484Z,11.80
2019-05-30T02:38:27.225Z,11.80
2019-05-30T02:40:57.781Z,11.73
2019-05-30T02:46:37.643Z,11.75
2019-05-30T02:49:27.462Z,11.77
2019-05-30T02:52:17.256Z,11.76
2019-05-30T02:55:09.139Z,11.75
2019-05-30T02:57:50.463Z,11.82
2019-05-30T03:03:24.706Z,11.73
2019-05-30T03:06:14.706Z,11.73
2019-05-30T03:11:51.025Z,11.64
2019-05-30T03:14:40.808Z,11.60
2019-05-30T03:17:30.600Z,11.60
2019-05-30T03:20:23.264Z,11.52
2019-05-30T03:23:05.297Z,11.48
2019-05-30T03:25:40.903Z,11.47
2019-05-30T03:28:30.693Z,11.51
2019-05-30T03:34:44.817Z,11.44
2019-05-30T03:37:34.617Z,11.44
2019-05-30T03:40:25.733Z,11.37
2019-05-30T03:43:03.856Z,11.42
2019-05-30T04:16:34.250Z,11.17
2019-05-30T04:19:24.052Z,11.16
2019-05-30T04:22:15.355Z,11.14
2019-05-30T04:24:56.693Z,11.15
2019-05-30T04:27:27.148Z,11.17
2019-05-30T04:30:18.540Z,11.04
2019-05-30T04:33:17.164Z,11.02
2019-05-30T04:35:43.728Z,11.08
2019-05-30T04:38:33.510Z,11.04
2019-05-30T04:41:23.268Z,11.08
2019-05-30T04:44:14.484Z,11.08
2019-05-30T04:47:04.576Z,11.13
2019-05-30T04:49:54.354Z,11.04
2019-05-30T04:52:44.101Z,11.03
2019-05-30T04:55:33.893Z,11.08
2019-05-30T04:58:04.324Z,11.02
2019-05-30T05:00:54.106Z,11.07
2019-05-30T05:03:46.149Z,11.04
2019-05-30T05:06:26.627Z,11.11
2019-05-30T05:09:17.990Z,11.08
2019-05-30T05:11:59.227Z,11.14
2019-05-30T05:14:49.004Z,11.11
2019-05-30T05:17:38.837Z,11.19
2019-05-30T05:20:28.588Z,11.28
2019-05-30T05:23:04.704Z,11.32
2019-05-30T05:26:00.891Z,11.35
2019-05-30T05:28:32.084Z,11.37
2019-05-30T05:31:22.457Z,11.41
2019-05-30T05:34:04.796Z,11.45
2019-05-30T05:36:54.586Z,11.50
2019-05-30T05:39:44.378Z,11.42
2019-05-30T05:42:34.158Z,11.54
2019-05-30T05:45:24.693Z,11.63
2019-05-30T05:48:06.866Z,11.67
2019-05-30T05:50:56.660Z,11.82
2019-05-30T05:53:27.144Z,11.79
2019-05-30T05:55:57.526Z,11.92
2019-05-30T05:58:29.250Z,12.01
2019-05-30T06:01:06.138Z,12.03
2019-05-30T06:03:36.622Z,12.05
2019-05-30T06:06:27.385Z,12.07
2019-05-30T06:09:09.360Z,12.23
2019-05-30T06:11:59.158Z,12.12
2019-05-30T06:14:29.578Z,12.15
2019-05-30T06:17:19.376Z,12.19
2019-05-30T06:20:09.325Z,12.39
2019-05-30T06:22:39.769Z,12.72
2019-05-30T06:25:32.474Z,12.76
2019-05-30T06:28:12.521Z,13.18
2019-05-30T06:31:02.295Z,13.28
2019-05-30T06:33:52.101Z,13.01
2019-05-30T06:36:41.883Z,13.11
2019-05-30T06:39:31.706Z,13.13
2019-05-30T06:42:21.719Z,13.29
2019-05-30T06:44:59.056Z,13.32
2019-05-30T06:47:48.864Z,13.63
2019-05-30T06:50:39.017Z,13.80
2019-05-30T06:53:29.348Z,13.81
2019-05-30T06:56:13.240Z,13.60
2019-05-30T06:59:03.084Z,13.99
2019-05-30T07:01:52.871Z,13.92
2019-05-30T07:04:51.425Z,13.69
2019-05-30T07:07:34.294Z,13.86
2019-05-30T07:10:11.863Z,13.93
2019-05-30T07:13:01.687Z,13.91
2019-05-30T07:15:34.261Z,14.00
2019-05-30T07:18:23.642Z,13.99
2019-05-30T07:21:13.416Z,13.94
2019-05-30T07:24:23.737Z,13.93
2019-05-30T07:27:05.752Z,14.04
2019-05-30T07:29:36.151Z,14.27
2019-05-30T07:38:01.918Z,14.09
2019-05-30T07:40:51.776Z,14.20
2019-05-30T07:43:24.890Z,14.47
2019-05-30T07:46:13.796Z,14.62
2019-05-30T07:49:03.568Z,14.74
2019-05-30T07:51:53.343Z,14.77
2019-05-30T07:54:43.154Z,15.42
2019-05-30T07:57:33.267Z,15.05
2019-05-30T08:00:57.433Z,15.60
2019-05-30T08:03:47.217Z,15.71
2019-05-30T08:06:37.909Z,15.96
2019-05-30T08:09:20.315Z,16.18
2019-05-30T08:12:10.131Z,15.90
2019-05-30T08:14:59.883Z,16.28
2019-05-30T08:17:49.687Z,16.37
2019-05-30T08:20:39.419Z,16.31
2019-05-30T08:23:30.091Z,16.58
2019-05-30T08:26:20.680Z,16.92
2019-05-30T08:29:10.497Z,16.47
2019-05-30T08:32:00.281Z,17.02
2019-05-30T08:34:50.054Z,17.37
2019-05-30T08:37:39.831Z,16.76
2019-05-30T08:40:29.588Z,16.48
2019-05-30T08:43:19.478Z,16.56
2019-05-30T08:46:09.275Z,16.56
2019-05-30T08:49:01.697Z,16.19
2019-05-30T08:51:42.448Z,16.24
2019-05-30T08:54:32.305Z,16.22
2019-05-30T08:57:22.088Z,16.50
2019-05-30T08:59:52.530Z,16.74
2019-05-30T09:02:42.917Z,16.69
2019-05-30T09:05:27.849Z,16.78
2019-05-30T09:08:17.642Z,17.00
2019-05-30T09:11:07.416Z,17.08
2019-05-30T09:13:38.882Z,16.89
2019-05-30T09:16:23.103Z,16.61
2019-05-30T09:19:12.891Z,16.87
2019-05-30T09:22:15.700Z,17.09
2019-05-30T09:24:46.683Z,17.24
2019-05-30T09:27:29.871Z,16.83
2019-05-30T09:33:23.618Z,16.47
2019-05-30T09:36:14.088Z,16.66
2019-05-30T09:38:56.484Z,16.54
2019-05-30T09:41:46.278Z,16.30
2019-05-30T09:44:50.443Z,16.42
2019-05-30T09:47:24.220Z,16.61
2019-05-30T09:53:20.282Z,16.25
2019-05-30T09:56:10.060Z,16.13
2019-05-30T09:58:59.931Z,16.05
2019-05-30T10:01:50.147Z,16.24
2019-05-30T10:04:32.716Z,16.48
2019-05-30T10:07:22.550Z,16.86
2019-05-30T10:10:12.634Z,16.54
2019-05-30T10:13:02.430Z,16.59
2019-05-30T10:15:52.563Z,16.83
2019-05-30T10:18:36.302Z,16.56
2019-05-30T10:21:26.094Z,16.92
2019-05-30T10:24:15.916Z,17.15
2019-05-30T10:27:05.728Z,17.30
2019-05-30T10:29:55.524Z,17.29
2019-05-30T10:32:46.750Z,17.27
2019-05-30T10:35:30.107Z,17.00
2019-05-30T10:38:12.628Z,17.16
2019-05-30T10:41:02.483Z,16.88
2019-05-30T10:43:53.151Z,16.95
2019-05-30T10:46:34.831Z,16.79
2019-05-30T10:49:34.410Z,16.62
2019-05-30T10:52:09.858Z,16.71
2019-05-30T10:54:59.630Z,16.62
2019-05-30T10:57:50.061Z,16.59
2019-05-30T11:00:53.638Z,16.52
2019-05-30T11:03:35.201Z,16.67
2019-05-30T11:12:37.070Z,16.48
2019-05-30T11:15:26.826Z,16.47
2019-05-30T11:18:16.669Z,16.61
2019-05-30T11:21:06.497Z,16.91
2019-05-30T11:23:56.763Z,17.00
2019-05-30T11:26:39.161Z,17.12
2019-05-30T11:29:29.011Z,17.15
2019-05-30T11:32:18.738Z,17.53
2019-05-30T11:35:08.652Z,17.65
2019-05-30T11:37:59.267Z,17.78
2019-05-30T11:40:43.206Z,17.61
2019-05-30T11:43:33.063Z,17.70
2019-05-30T11:46:22.863Z,17.63
2019-05-30T11:49:12.669Z,17.71
2019-05-30T11:51:43.135Z,17.58
2019-05-30T11:54:33.044Z,17.43
2019-05-30T11:57:22.872Z,17.39
2019-05-30T12:03:14.476Z,17.64
2019-05-30T12:06:04.265Z,18.03
2019-05-30T12:08:54.738Z,17.91
2019-05-30T12:11:36.667Z,17.88
2019-05-30T12:14:26.496Z,17.83
2019-05-30T12:17:16.273Z,17.85
2019-05-30T12:23:11.415Z,17.58
2019-05-30T12:26:02.291Z,17.83
2019-05-30T12:28:45.699Z,17.56
2019-05-30T12:31:35.619Z,17.43
2019-05-30T12:34:25.430Z,17.46
2019-05-30T12:37:15.248Z,17.45
2019-05-30T12:43:09.376Z,17.56
2019-05-30T12:45:59.197Z,17.61
2019-05-30T12:48:48.970Z,17.66
2019-05-30T12:51:38.764Z,17.82
2019-05-30T12:54:28.566Z,17.88
2019-05-30T12:57:18.297Z,17.82
2019-05-30T13:02:52.543Z,17.84
2019-05-30T13:05:42.378Z,17.89
2019-05-30T13:08:32.248Z,18.04
2019-05-30T13:11:22.052Z,17.94
2019-05-30T13:14:11.909Z,17.92
2019-05-30T13:17:01.909Z,17.99
2019-05-30T13:19:32.299Z,18.03
2019-05-30T13:22:22.131Z,18.14
2019-05-30T13:24:52.565Z,18.17
2019-05-30T13:27:42.418Z,18.14
2019-05-30T13:30:32.293Z,18.36
2019-05-30T13:33:22.101Z,18.64
2019-05-30T13:36:11.872Z,18.78
2019-05-30T13:39:01.655Z,19.16
2019-05-30T13:41:51.501Z,19.45
2019-05-30T13:44:41.321Z,19.78
2019-05-30T13:47:31.111Z,19.85
2019-05-30T13:53:05.353Z,20.51
2019-05-30T13:55:56.400Z,20.64
2019-05-30T13:58:26.801Z,20.45
2019-05-30T14:01:16.561Z,20.15
2019-05-30T14:04:06.443Z,19.90
2019-05-30T14:06:56.187Z,19.63
2019-05-30T14:09:45.992Z,19.43
2019-05-30T14:12:35.803Z,19.16
2019-05-30T14:15:25.707Z,18.76
2019-05-30T14:18:15.477Z,18.33
2019-05-30T14:21:05.314Z,17.99
2019-05-30T14:23:55.116Z,17.83
2019-05-30T14:26:44.910Z,17.73
2019-05-30T14:29:34.724Z,17.83
2019-05-30T14:32:24.541Z,17.69
2019-05-30T14:34:54.934Z,17.69
2019-05-30T14:37:44.737Z,17.72
2019-05-30T14:40:34.556Z,17.75
2019-05-30T14:43:05.270Z,17.66
2019-05-30T14:45:48.442Z,17.51
2019-05-30T14:48:38.231Z,17.37
2019-05-30T14:51:28.045Z,17.30
2019-05-30T14:54:17.847Z,17.20
2019-05-30T14:57:08.819Z,17.04
2019-05-30T14:59:50.535Z,17.13
2019-05-30T15:02:40.321Z,17.46
2019-05-30T15:05:30.193Z,17.97
2019-05-30T15:08:19.974Z,18.16
2019-05-30T15:11:09.732Z,18.31
2019-05-30T15:13:59.516Z,18.38
2019-05-30T15:16:49.301Z,18.57
2019-05-30T15:19:39.074Z,18.62
2019-05-30T15:22:28.837Z,18.65
2019-05-30T15:24:59.256Z,18.43
2019-05-30T15:27:49.044Z,18.34
2019-05-30T15:30:38.814Z,18.23
2019-05-30T15:33:28.601Z,18.25
2019-05-30T15:36:18.407Z,18.30
2019-05-30T15:39:09.012Z,18.39
2019-05-30T15:41:40.249Z,18.37
2019-05-30T15:44:30.042Z,18.20
2019-05-30T15:47:19.843Z,18.13
2019-05-30T15:53:13.092Z,18.16
2019-05-30T15:56:03.726Z,17.97
2019-05-30T15:58:53.536Z,17.69
2019-05-30T16:01:43.322Z,17.44
2019-05-30T16:04:33.123Z,17.21
2019-05-30T16:07:22.918Z,17.11
2019-05-30T16:10:12.994Z,16.96
2019-05-30T16:12:43.534Z,16.88
2019-05-30T16:15:33.344Z,16.93
2019-05-30T16:18:23.126Z,16.86
2019-05-30T16:20:53.532Z,16.78
2019-05-30T16:23:43.312Z,16.54
2019-05-30T16:26:33.124Z,16.47
2019-05-30T16:29:22.893Z,16.36
2019-05-30T16:32:13.806Z,16.28
2019-05-30T16:35:04.282Z,16.23
2019-05-30T16:37:54.083Z,16.12
2019-05-30T16:40:24.459Z,15.95
2019-05-30T16:43:14.301Z,15.88
2019-05-30T16:46:04.087Z,15.78
2019-05-30T16:48:34.649Z,15.67
2019-05-30T16:51:24.472Z,15.60
2019-05-30T16:54:15.136Z,15.59
2019-05-30T16:57:05.745Z,15.51
2019-05-30T16:59:55.536Z,15.51
2019-05-30T17:02:45.334Z,15.54
2019-05-30T17:05:35.157Z,15.49
2019-05-30T17:08:26.265Z,15.38
2019-05-30T17:11:10.082Z,15.26
2019-05-30T17:13:59.902Z,15.17
2019-05-30T17:16:49.753Z,15.10
2019-05-30T17:19:39.840Z,15.02
2019-05-30T17:22:17.092Z,14.96
2019-05-30T17:25:07.210Z,14.88
2019-05-30T17:27:37.762Z,14.77
2019-05-30T17:30:27.771Z,14.75
2019-05-30T17:33:20.070Z,14.72
2019-05-30T17:36:09.165Z,14.65
2019-05-30T17:38:58.946Z,14.58
2019-05-30T17:41:48.749Z,14.51
2019-05-30T17:44:38.564Z,14.47
2019-05-30T17:47:29.465Z,14.41
2019-05-30T17:50:50.755Z,14.38
2019-05-30T17:53:40.580Z,14.33
2019-05-30T17:56:30.433Z,14.25
2019-05-30T17:59:20.273Z,14.19
2019-05-30T18:02:10.436Z,14.14
2019-05-30T18:04:41.261Z,14.10
2019-05-30T18:07:31.229Z,14.07
2019-05-30T18:10:21.133Z,14.03
2019-05-30T18:13:11.002Z,13.96
2019-05-30T18:16:00.864Z,13.95
2019-05-30T18:18:50.698Z,14.00
2019-05-30T18:21:41.448Z,13.98
2019-05-30T18:24:31.791Z,13.92
2019-05-30T18:27:08.855Z,13.88
2019-05-30T18:29:58.660Z,13.86
2019-05-30T18:32:30.233Z,13.85
2019-05-30T18:35:20.554Z,13.78
2019-05-30T18:38:10.392Z,13.75
2019-05-30T18:41:11.091Z,13.72
2019-05-30T18:43:42.770Z,13.80
2019-05-30T18:46:33.357Z,13.69
2019-05-30T18:49:17.072Z,13.57
2019-05-30T18:52:06.881Z,13.60
2019-05-30T18:54:56.770Z,13.56
2019-05-30T18:57:27.261Z,13.49
2019-05-30T19:00:18.474Z,13.46
2019-05-30T19:02:54.825Z,13.38
2019-05-30T19:05:44.681Z,13.40
2019-05-30T19:08:34.539Z,13.45
2019-05-30T19:11:27.972Z,13.51
2019-05-30T19:14:07.928Z,13.51
2019-05-30T19:16:57.767Z,13.47
2019-05-30T19:19:51.098Z,13.52
2019-05-30T19:28:01.643Z,13.40
2019-05-30T19:30:51.497Z,13.47
2019-05-30T19:33:41.378Z,13.44
2019-05-30T19:36:31.208Z,13.45
2019-05-30T19:39:21.427Z,13.37
2019-05-30T19:42:11.258Z,13.32
2019-05-30T19:45:01.178Z,13.29
2019-05-30T19:47:51.027Z,13.28
2019-05-30T19:50:40.917Z,13.27
2019-05-30T19:53:30.904Z,13.19
2019-05-30T19:56:01.551Z,13.12
2019-05-30T19:58:51.302Z,13.04
2019-05-30T20:01:41.125Z,13.01
2019-05-30T20:04:32.146Z,12.97
2019-05-30T20:07:08.600Z,12.95
2019-05-30T20:10:01.774Z,12.94
2019-05-30T20:12:41.871Z,12.95
2019-05-30T20:15:31.688Z,12.93
2019-05-30T20:18:21.539Z,12.91
2019-05-30T20:21:11.341Z,12.90
2019-05-30T20:24:01.164Z,12.90
2019-05-30T20:26:32.400Z,12.90
2019-05-30T20:29:23.241Z,12.83
2019-05-30T20:32:13.059Z,12.75
2019-05-30T20:35:02.939Z,12.73
2019-05-30T20:37:52.767Z,12.71
2019-05-30T20:40:43.037Z,12.67
2019-05-30T20:43:20.176Z,12.61
2019-05-30T20:49:14.649Z,12.53
2019-05-30T20:52:04.438Z,12.50
2019-05-30T20:54:35.276Z,12.49
2019-05-30T20:57:46.709Z,12.49
2019-05-30T21:00:56.218Z,12.49
2019-05-30T21:03:46.002Z,12.47
2019-05-30T21:06:36.670Z,12.48
2019-05-30T21:09:27.865Z,12.46
2019-05-30T21:21:08.979Z,12.66
2019-05-30T21:23:58.792Z,12.78
2019-05-30T21:26:31.249Z,13.04
2019-05-30T21:32:26.725Z,12.98
2019-05-30T21:35:16.783Z,12.99
2019-05-30T21:38:06.667Z,13.05
2019-05-30T21:40:56.447Z,12.94
2019-05-30T21:43:46.836Z,12.92
2019-05-30T21:46:29.108Z,12.98
2019-05-30T21:49:18.908Z,13.06
2019-05-30T21:52:08.699Z,13.04
2019-05-30T21:54:58.532Z,13.05
2019-05-30T21:57:28.988Z,13.09
2019-05-30T22:03:25.018Z,13.06
2019-05-30T22:06:14.859Z,13.01
2019-05-30T22:12:08.997Z,12.82
2019-05-30T22:15:17.789Z,12.75
2019-05-30T22:18:07.654Z,12.79
2019-05-30T22:24:26.638Z,12.77
2019-05-30T22:27:16.423Z,12.71
2019-05-30T22:30:06.749Z,12.64
2019-05-30T22:32:56.628Z,12.78
2019-05-30T22:35:46.786Z,12.88
2019-05-30T22:38:27.050Z,12.79
2019-05-30T22:41:16.822Z,12.80
2019-05-30T22:46:50.315Z,12.85
2019-05-30T22:49:40.075Z,12.98
2019-05-30T22:52:29.854Z,12.90
2019-05-30T22:55:21.473Z,13.05
2019-05-30T22:57:57.880Z,13.13
2019-05-30T23:00:46.161Z,13.03
2019-05-30T23:03:18.113Z,13.00
2019-05-30T23:06:07.964Z,12.92
2019-05-30T23:08:57.799Z,13.04
2019-05-30T23:11:47.743Z,13.00
2019-05-30T23:14:18.431Z,12.91
2019-05-30T23:17:08.268Z,12.95
2019-05-30T23:19:58.136Z,13.14
2019-05-30T23:22:28.634Z,13.33
2019-05-30T23:25:18.438Z,13.33
2019-05-30T23:28:08.195Z,13.31
2019-05-30T23:30:38.610Z,13.35
2019-05-30T23:33:28.386Z,13.30
2019-05-30T23:36:18.244Z,13.27
2019-05-30T23:39:08.210Z,13.37
2019-05-30T23:41:59.239Z,13.31
2019-05-30T23:44:49.486Z,13.46
2019-05-30T23:47:39.301Z,13.32
2019-05-30T23:50:29.083Z,13.44
2019-05-30T23:53:18.881Z,13.32
2019-05-30T23:56:08.656Z,13.25
2019-05-30T23:58:58.901Z,13.30
